Time;durP1;ratioP1;P1;durP2;ratioP2;P2;SDS_P1;SDS_P2;PMS_P1;PMS_P2;Temp;Humidity;BMP_temperature;BMP_pressure;BME280_temperature;BME280_humidity;BME280_pressure;Samples;Min_cycle;Max_cycle;Signal;HPM_P1;HPM_P2
2021/04/04 00:00:10;;;;;;;10.87;4.73;;;;;;;1.44;94.76;96835.75;5011561;28;20778;-75
2021/04/04 00:02:36;;;;;;;11.80;4.40;;;;;;;1.38;96.35;96838.75;5009413;28;20206;-74
2021/04/04 00:05:03;;;;;;;9.33;4.33;;;;;;;1.40;95.58;96839.50;5007762;28;20634;-74
2021/04/04 00:07:29;;;;;;;7.70;3.90;;;;;;;1.30;94.68;96846.25;5008389;28;20209;-74
2021/04/04 00:09:55;;;;;;;10.57;4.50;;;;;;;1.48;93.60;96838.97;5009827;28;20221;-74
2021/04/04 00:12:21;;;;;;;14.37;4.93;;;;;;;1.52;93.68;96840.41;5007996;28;21073;-76
2021/04/04 00:14:47;;;;;;;10.80;4.33;;;;;;;1.61;93.15;96840.56;5010620;28;20259;-74
2021/04/04 00:17:14;;;;;;;10.57;4.27;;;;;;;1.56;94.43;96837.47;5008333;28;20222;-76
2021/04/04 00:19:40;;;;;;;15.57;5.47;;;;;;;1.65;93.63;96836.81;5009926;28;20213;-74
2021/04/04 00:22:06;;;;;;;12.53;4.10;;;;;;;1.62;93.74;96831.03;5006258;28;20217;-75
2021/04/04 00:24:32;;;;;;;11.90;4.57;;;;;;;1.74;92.80;96840.53;5008356;28;20319;-74
2021/04/04 00:26:59;;;;;;;10.03;4.47;;;;;;;1.75;92.18;96832.63;5007512;28;20557;-74
2021/04/04 00:29:25;;;;;;;10.77;4.10;;;;;;;1.76;90.74;96834.28;5006596;28;20213;-75
2021/04/04 00:31:51;;;;;;;13.13;4.63;;;;;;;1.78;91.44;96831.59;5011572;28;20220;-74
2021/04/04 00:34:17;;;;;;;10.03;4.63;;;;;;;1.67;90.98;96829.75;5005340;28;20279;-74
2021/04/04 00:36:43;;;;;;;8.07;4.20;;;;;;;1.56;89.65;96832.28;5007854;28;20206;-75
2021/04/04 00:39:11;;;;;;;10.07;4.23;;;;;;;1.46;91.25;96830.44;5009827;28;20220;-74
2021/04/04 00:41:38;;;;;;;10.90;4.33;;;;;;;1.43;90.37;96828.88;5010809;28;20201;-74
2021/04/04 00:44:06;;;;;;;11.93;4.50;;;;;;;1.37;90.89;96831.91;5006620;28;20377;-76
2021/04/04 00:46:32;;;;;;;8.63;4.43;;;;;;;1.26;90.93;96831.84;5007542;28;20217;-75
2021/04/04 00:48:58;;;;;;;11.97;4.67;;;;;;;1.27;92.72;96825.72;5010883;28;20201;-74
2021/04/04 00:51:24;;;;;;;13.33;4.20;;;;;;;1.32;92.47;96828.81;5007476;28;20234;-73
2021/04/04 00:53:51;;;;;;;9.50;4.20;;;;;;;1.33;92.18;96827.88;5006918;28;20206;-75
2021/04/04 00:56:17;;;;;;;7.43;3.97;;;;;;;1.36;91.65;96814.69;5006400;28;20209;-75
2021/04/04 00:58:43;;;;;;;9.73;4.60;;;;;;;1.47;90.86;96817.34;5008470;28;20232;-75
2021/04/04 01:01:11;;;;;;;9.13;3.93;;;;;;;1.31;90.89;96815.94;5009206;28;20225;-74
2021/04/04 01:03:37;;;;;;;8.97;4.53;;;;;;;1.23;90.52;96823.44;5003885;28;20221;-75
2021/04/04 01:06:06;;;;;;;11.17;4.40;;;;;;;1.23;91.97;96813.91;5003883;28;20256;-75
2021/04/04 01:08:33;;;;;;;12.60;5.03;;;;;;;1.20;92.35;96814.09;5007356;28;20202;-74
2021/04/04 01:11:01;;;;;;;8.23;4.43;;;;;;;1.18;93.17;96814.31;5008621;28;20209;-74
2021/04/04 01:13:35;;;;;;;10.53;4.77;;;;;;;1.18;92.95;96814.31;5002786;28;20215;-74
2021/04/04 01:16:06;;;;;;;8.30;4.10;;;;;;;1.19;90.09;96810.78;5002983;28;20234;-73
2021/04/04 01:18:37;;;;;;;12.33;4.23;;;;;;;1.13;89.31;96811.19;5005336;28;20233;-73
2021/04/04 01:21:06;;;;;;;11.13;4.47;;;;;;;1.10;89.32;96806.25;5005457;28;20214;-75
2021/04/04 01:23:57;;;;;;;9.07;4.40;;;;;;;1.09;90.83;96805.38;5007496;28;20230;-73
2021/04/04 01:26:55;;;;;;;11.83;4.80;;;;;;;1.01;91.66;96814.66;5005598;28;20208;-74
2021/04/04 01:29:24;;;;;;;13.23;4.60;;;;;;;1.07;90.69;96822.00;4999061;28;20208;-73
2021/04/04 01:31:52;;;;;;;11.47;4.10;;;;;;;1.11;90.77;96813.91;5006430;28;20209;-76
2021/04/04 01:34:21;;;;;;;10.80;4.50;;;;;;;1.10;91.66;96808.84;5007046;28;20232;-73
2021/04/04 01:36:51;;;;;;;11.07;4.27;;;;;;;1.12;90.21;96805.19;5005812;28;20952;-76
2021/04/04 01:39:19;;;;;;;9.03;4.47;;;;;;;0.89;91.60;96812.88;5007022;28;20198;-73
2021/04/04 01:41:47;;;;;;;8.73;4.53;;;;;;;0.81;91.33;96807.41;5008354;28;20210;-76
2021/04/04 01:44:16;;;;;;;10.90;4.63;;;;;;;0.92;90.80;96812.69;5005909;28;20238;-74
2021/04/04 01:46:45;;;;;;;12.53;4.97;;;;;;;0.84;92.15;96809.78;5009248;28;20290;-75
2021/04/04 01:49:12;;;;;;;10.40;4.67;;;;;;;0.89;91.47;96810.28;5013005;28;20557;-73
2021/04/04 01:51:39;;;;;;;13.43;4.80;;;;;;;0.85;92.48;96814.03;5006581;28;20208;-73
2021/04/04 01:54:08;;;;;;;9.47;4.03;;;;;;;0.94;90.81;96806.47;5005411;28;21000;-76
2021/04/04 01:56:36;;;;;;;11.17;4.50;;;;;;;0.89;89.59;96807.69;5004721;28;20216;-75
2021/04/04 01:59:03;;;;;;;9.47;4.30;;;;;;;0.75;90.92;96810.41;5008547;28;20276;-73
2021/04/04 02:01:30;;;;;;;11.73;4.87;;;;;;;0.79;91.41;96797.13;5006150;28;20216;-73
2021/04/04 02:04:01;;;;;;;11.83;4.80;;;;;;;0.76;92.21;96805.13;5007300;28;20220;-74
2021/04/04 02:06:27;;;;;;;9.33;4.90;;;;;;;0.78;91.64;96805.03;5008727;28;20206;-75
2021/04/04 02:08:54;;;;;;;10.77;5.03;;;;;;;0.83;92.24;96797.75;5006968;28;20206;-75
2021/04/04 02:11:23;;;;;;;11.93;4.07;;;;;;;0.91;91.63;96805.84;5003289;28;20207;-73
2021/04/04 02:13:50;;;;;;;12.10;4.63;;;;;;;0.89;90.69;96797.31;4999577;28;20211;-73
2021/04/04 02:16:19;;;;;;;14.30;4.40;;;;;;;0.82;91.65;96796.09;5004680;28;20236;-74
2021/04/04 02:18:46;;;;;;;9.33;4.10;;;;;;;0.81;92.36;96799.63;5006778;28;20704;-73
2021/04/04 02:21:14;;;;;;;11.87;4.30;;;;;;;0.75;91.06;96793.09;5001922;28;20203;-76
2021/04/04 02:23:42;;;;;;;13.03;4.23;;;;;;;0.64;92.01;96799.94;5005868;28;20259;-74
2021/04/04 02:26:08;;;;;;;12.60;4.90;;;;;;;0.51;94.11;96795.66;5004163;28;20204;-76
2021/04/04 02:28:34;;;;;;;12.70;4.50;;;;;;;0.54;93.37;96798.91;5006644;28;20672;-74
2021/04/04 02:31:01;;;;;;;10.00;4.30;;;;;;;0.61;93.25;96797.53;5009479;28;20211;-74
2021/04/04 02:33:32;;;;;;;9.13;4.50;;;;;;;0.66;92.79;96795.47;5009121;28;20205;-74
2021/04/04 02:36:03;;;;;;;9.80;4.17;;;;;;;0.62;92.44;96794.00;5008403;28;20233;-74
2021/04/04 02:38:34;;;;;;;9.43;4.50;;;;;;;0.56;92.08;96810.00;5008791;28;20233;-73
2021/04/04 02:41:02;;;;;;;10.93;4.23;;;;;;;0.64;91.80;96794.75;5007648;28;20212;-74
2021/04/04 02:43:30;;;;;;;10.30;4.13;;;;;;;0.69;90.97;96795.28;5003072;28;20288;-76
2021/04/04 02:45:58;;;;;;;9.17;4.63;;;;;;;0.59;90.85;96796.81;5003356;28;20995;-73
2021/04/04 02:48:28;;;;;;;11.73;4.53;;;;;;;0.56;90.83;96797.03;5009431;28;20202;-76
2021/04/04 02:50:57;;;;;;;10.97;4.03;;;;;;;0.58;91.52;96797.75;5003708;28;20294;-74
2021/04/04 02:53:24;;;;;;;8.97;3.90;;;;;;;0.57;91.64;96801.28;5006334;28;20206;-73
2021/04/04 02:55:53;;;;;;;10.00;3.87;;;;;;;0.57;91.44;96800.47;5007381;28;20226;-76
2021/04/04 02:58:20;;;;;;;9.90;4.50;;;;;;;0.48;90.76;96796.72;5003638;28;20230;-74
2021/04/04 03:00:47;;;;;;;8.80;3.90;;;;;;;0.43;90.45;96806.56;5009345;28;20209;-74
2021/04/04 03:03:18;;;;;;;13.53;4.33;;;;;;;0.48;90.18;96801.88;5010836;28;20203;-74
2021/04/04 03:05:46;;;;;;;17.17;4.90;;;;;;;0.42;92.32;96799.72;5007267;28;20222;-73
2021/04/04 03:08:14;;;;;;;10.60;4.43;;;;;;;0.41;92.92;96800.66;5006003;28;20207;-74
2021/04/04 03:10:41;;;;;;;7.87;4.03;;;;;;;0.42;93.42;96809.25;5004739;28;20278;-74
2021/04/04 03:13:10;;;;;;;11.13;4.43;;;;;;;0.47;91.92;96799.41;5006410;28;20205;-74
2021/04/04 03:15:38;;;;;;;8.00;3.87;;;;;;;0.45;91.36;96799.50;5007572;28;20226;-74
2021/04/04 03:18:05;;;;;;;9.50;3.90;;;;;;;0.44;91.76;96800.44;5009795;28;20222;-76
2021/04/04 03:20:31;;;;;;;9.20;4.73;;;;;;;0.45;92.15;96798.69;5000541;28;20860;-73
2021/04/04 03:22:58;;;;;;;7.30;3.97;;;;;;;0.43;90.81;96797.97;5007250;28;20209;-76
2021/04/04 03:25:26;;;;;;;11.43;4.03;;;;;;;0.39;89.79;96802.50;5002075;28;20234;-76
2021/04/04 03:27:56;;;;;;;8.27;4.17;;;;;;;0.38;90.38;96800.03;5004816;28;20211;-73
2021/04/04 03:30:36;;;;;;;9.17;3.80;;;;;;;0.36;90.74;96802.72;5006103;28;20674;-75
2021/04/04 03:33:04;;;;;;;10.13;3.97;;;;;;;0.25;90.68;96807.78;5009420;28;20698;-73
2021/04/04 03:35:31;;;;;;;8.27;3.93;;;;;;;0.21;91.04;96797.72;5004883;28;20274;-73
2021/04/04 03:37:59;;;;;;;10.07;4.20;;;;;;;0.12;91.79;96806.09;5005651;28;20218;-75
2021/04/04 03:40:25;;;;;;;7.63;3.93;;;;;;;0.16;91.37;96800.59;5008963;28;20212;-76
2021/04/04 03:42:53;;;;;;;8.13;4.17;;;;;;;0.14;91.37;96797.31;5010111;28;20216;-74
2021/04/04 03:45:20;;;;;;;10.30;4.13;;;;;;;0.17;92.16;96806.63;5008521;28;20232;-75
2021/04/04 03:47:48;;;;;;;7.77;4.23;;;;;;;0.19;91.01;96810.78;5007042;28;20198;-76
2021/04/04 03:50:17;;;;;;;7.20;3.90;;;;;;;0.17;90.52;96801.47;5008209;28;20231;-76
2021/04/04 03:52:44;;;;;;;9.10;4.30;;;;;;;0.09;91.33;96809.72;5008619;28;20268;-76
2021/04/04 03:55:11;;;;;;;9.97;4.17;;;;;;;0.02;91.33;96803.28;5005753;28;20215;-74
2021/04/04 03:57:39;;;;;;;8.23;4.00;;;;;;;-0.02;94.00;96806.19;5008845;28;20221;-74
2021/04/04 04:00:08;;;;;;;9.07;4.20;;;;;;;0.00;93.30;96810.34;5006918;28;20845;-77
2021/04/04 04:02:36;;;;;;;8.33;4.30;;;;;;;-0.02;93.71;96805.34;5014977;28;20207;-73
2021/04/04 04:05:05;;;;;;;7.53;3.63;;;;;;;-0.02;93.20;96797.59;5007800;28;20325;-74
2021/04/04 04:07:32;;;;;;;11.90;4.20;;;;;;;-0.01;92.58;96808.66;5008674;28;20196;-76
2021/04/04 04:10:00;;;;;;;12.10;4.40;;;;;;;0.03;92.69;96809.31;5010722;28;20195;-74
2021/04/04 04:12:27;;;;;;;13.57;4.50;;;;;;;0.04;93.21;96806.59;5003278;28;20640;-76
2021/04/04 04:14:56;;;;;;;10.77;4.53;;;;;;;-0.03;91.86;96808.88;5010655;28;20226;-75
2021/04/04 04:17:23;;;;;;;9.50;3.90;;;;;;;-0.06;90.69;96811.63;5009304;28;20230;-75
2021/04/04 04:19:50;;;;;;;11.67;4.67;;;;;;;-0.13;91.92;96807.81;5010307;28;20206;-75
2021/04/04 04:22:17;;;;;;;9.20;4.50;;;;;;;-0.14;92.72;96808.72;5011614;28;20272;-75
2021/04/04 04:24:47;;;;;;;8.63;3.87;;;;;;;-0.25;94.80;96808.59;5007942;28;20737;-75
2021/04/04 04:27:13;;;;;;;10.37;4.77;;;;;;;-0.21;94.33;96799.72;5007863;28;20656;-74
2021/04/04 04:29:40;;;;;;;8.90;4.27;;;;;;;-0.19;95.35;96805.59;5011398;28;20205;-76
2021/04/04 04:32:06;;;;;;;13.77;4.17;;;;;;;-0.15;95.67;96794.97;5008663;28;20206;-76
2021/04/04 04:34:33;;;;;;;9.27;4.60;;;;;;;-0.19;94.86;96795.25;5014438;28;20231;-73
2021/04/04 04:37:00;;;;;;;12.67;4.30;;;;;;;-0.09;93.21;96801.50;5007656;28;20914;-76
2021/04/04 04:39:28;;;;;;;8.33;4.33;;;;;;;-0.14;91.91;96796.63;5008158;28;20224;-76
2021/04/04 04:41:54;;;;;;;10.70;4.70;;;;;;;-0.09;92.55;96797.13;5007784;28;20195;-75
2021/04/04 04:44:24;;;;;;;14.10;4.20;;;;;;;-0.18;91.97;96789.13;5004874;28;20251;-74
2021/04/04 04:46:50;;;;;;;8.80;4.40;;;;;;;-0.13;91.95;96792.25;5006440;28;20198;-74
2021/04/04 04:49:17;;;;;;;9.00;4.47;;;;;;;-0.19;91.87;96793.50;5006475;28;20202;-76
2021/04/04 04:51:46;;;;;;;11.23;3.83;;;;;;;-0.16;91.08;96787.28;5010239;28;20214;-73
2021/04/04 04:54:12;;;;;;;9.60;4.13;;;;;;;-0.22;92.14;96798.03;5013847;28;20637;-73
2021/04/04 04:56:40;;;;;;;9.23;4.10;;;;;;;-0.24;92.39;96794.69;5010110;28;20213;-76
2021/04/04 04:59:07;;;;;;;10.77;4.60;;;;;;;-0.16;92.74;96792.47;5007004;28;20249;-74
2021/04/04 05:01:39;;;;;;;11.57;4.50;;;;;;;-0.17;91.71;96786.44;5009342;28;20206;-73
2021/04/04 05:04:05;;;;;;;10.33;4.33;;;;;;;-0.11;91.31;96791.25;5009574;28;20234;-74
2021/04/04 05:06:32;;;;;;;9.57;4.57;;;;;;;-0.11;90.46;96791.25;5001844;28;20200;-75
2021/04/04 05:09:00;;;;;;;9.57;4.33;;;;;;;-0.09;90.49;96793.72;5007313;28;20207;-74
2021/04/04 05:11:27;;;;;;;11.40;4.60;;;;;;;-0.09;91.50;96788.53;5008055;28;20206;-76
2021/04/04 05:13:54;;;;;;;9.13;3.97;;;;;;;-0.20;91.86;96793.59;5003853;28;20217;-77
2021/04/04 05:16:21;;;;;;;11.20;4.60;;;;;;;-0.31;93.80;96785.69;5005536;28;20766;-74
2021/04/04 05:18:48;;;;;;;11.17;4.57;;;;;;;-0.23;94.62;96783.41;5004584;28;20708;-74
2021/04/04 05:21:19;;;;;;;14.43;4.60;;;;;;;-0.10;93.02;96792.91;5006017;28;20203;-75
2021/04/04 05:23:46;;;;;;;9.33;4.53;;;;;;;-0.03;92.95;96788.97;5005138;28;20207;-74
2021/04/04 05:26:14;;;;;;;12.40;4.67;;;;;;;-0.05;92.67;96795.19;5001925;28;20242;-75
2021/04/04 05:28:40;;;;;;;9.77;4.63;;;;;;;0.02;92.95;96798.09;5007450;28;20199;-75
2021/04/04 05:31:07;;;;;;;10.60;4.47;;;;;;;-0.14;94.75;96793.19;5006469;28;20426;-74
2021/04/04 05:33:33;;;;;;;10.03;4.57;;;;;;;-0.01;95.13;96798.31;5007662;28;20226;-74
2021/04/04 05:36:02;;;;;;;10.63;4.77;;;;;;;0.01;95.43;96798.19;5005630;28;20226;-77
2021/04/04 05:38:29;;;;;;;11.60;5.13;;;;;;;0.20;94.95;96796.88;5010876;28;20232;-76
2021/04/04 05:40:56;;;;;;;15.83;5.43;;;;;;;0.28;94.36;96792.03;5006104;28;20213;-76
2021/04/04 05:43:25;;;;;;;13.93;4.90;;;;;;;0.24;95.57;96798.38;5000273;28;20208;-74
2021/04/04 05:46:00;;;;;;;13.93;5.30;;;;;;;0.33;95.46;96804.69;5004955;28;20226;-77
2021/04/04 05:48:43;;;;;;;15.17;5.93;;;;;;;0.44;95.97;96805.63;5011331;28;20582;-74
2021/04/04 05:51:27;;;;;;;13.53;5.93;;;;;;;0.50;94.60;96801.78;5007690;28;20203;-76
2021/04/04 05:54:08;;;;;;;15.80;6.23;;;;;;;0.58;95.36;96800.34;5009529;28;20284;-73
2021/04/04 05:56:41;;;;;;;14.33;6.17;;;;;;;0.68;96.25;96799.63;5008160;28;20206;-75
2021/04/04 05:59:12;;;;;;;13.27;6.43;;;;;;;0.78;96.44;96787.69;5004452;28;20423;-74
2021/04/04 06:02:06;;;;;;;12.30;6.13;;;;;;;0.88;97.16;96795.66;5004292;28;20206;-75
2021/04/04 06:04:52;;;;;;;15.37;6.00;;;;;;;0.98;96.62;96781.97;5000786;28;20228;-74
2021/04/04 06:07:52;;;;;;;17.13;6.87;;;;;;;1.01;96.80;96788.72;5002142;28;20203;-73
2021/04/04 06:10:22;;;;;;;12.60;6.47;;;;;;;1.17;96.84;96792.69;5005298;28;20207;-73
2021/04/04 06:13:10;;;;;;;14.10;6.87;;;;;;;1.20;98.67;96793.31;5006127;28;20546;-78
2021/04/04 06:15:49;;;;;;;13.20;6.87;;;;;;;1.35;99.39;96786.22;5004608;28;20227;-75
2021/04/04 06:18:28;;;;;;;19.37;6.33;;;;;;;1.36;100.00;96788.72;5002768;28;20873;-78
2021/04/04 06:21:02;;;;;;;12.57;6.93;;;;;;;1.56;100.00;96780.34;5001733;28;20738;-77
2021/04/04 06:23:34;;;;;;;20.37;8.97;;;;;;;1.56;100.00;96779.50;5008707;28;20209;-77
2021/04/04 06:26:16;;;;;;;44.23;16.20;;;;;;;1.66;100.00;96778.75;5006539;28;20236;-73
2021/04/04 06:28:54;;;;;;;39.80;14.77;;;;;;;1.75;99.95;96780.69;5002349;28;20213;-74
2021/04/04 06:31:25;;;;;;;35.43;14.50;;;;;;;1.88;98.64;96781.44;5007608;28;20208;-75
2021/04/04 06:34:01;;;;;;;25.27;10.73;;;;;;;1.91;98.21;96781.22;5004676;28;20235;-74
2021/04/04 06:36:38;;;;;;;20.63;8.47;;;;;;;1.88;96.76;96781.44;5004901;28;20217;-73
2021/04/04 06:39:16;;;;;;;14.67;7.27;;;;;;;2.00;96.05;96776.19;5005052;28;20233;-73
2021/04/04 06:42:06;;;;;;;16.77;7.17;;;;;;;2.21;95.12;96784.16;5004966;28;20229;-74
2021/04/04 06:44:52;;;;;;;15.40;6.10;;;;;;;2.30;93.25;96788.69;5003832;28;20253;-75
2021/04/04 06:47:27;;;;;;;13.00;6.03;;;;;;;2.43;92.31;96778.09;5004992;28;20260;-74
2021/04/04 06:50:03;;;;;;;12.60;5.77;;;;;;;2.49;91.82;96780.22;5004641;28;20212;-73
2021/04/04 06:52:41;;;;;;;12.33;5.77;;;;;;;2.57;90.31;96770.06;5004332;28;20201;-77
2021/04/04 06:55:15;;;;;;;16.20;5.57;;;;;;;2.67;90.56;96771.03;5004263;28;20237;-75
2021/04/04 06:58:01;;;;;;;12.80;5.67;;;;;;;2.81;89.97;96778.59;5000705;28;20288;-75
2021/04/04 07:00:37;;;;;;;14.10;6.13;;;;;;;2.97;88.39;96776.50;5001463;28;20256;-75
2021/04/04 07:03:06;;;;;;;12.43;5.83;;;;;;;3.01;88.22;96764.88;5005239;28;20201;-74
2021/04/04 07:05:36;;;;;;;13.53;5.73;;;;;;;3.16;86.45;96776.72;5002370;28;20229;-77
2021/04/04 07:08:30;;;;;;;13.90;5.73;;;;;;;3.18;87.12;96780.03;5003107;28;20206;-73
2021/04/04 07:11:05;;;;;;;13.30;5.53;;;;;;;3.34;87.14;96775.28;4990498;28;20206;-76
2021/04/04 07:13:48;;;;;;;15.13;5.80;;;;;;;3.55;86.53;96784.81;5005107;28;20201;-73
2021/04/04 07:16:59;;;;;;;16.23;6.40;;;;;;;3.51;85.07;96783.41;5002056;28;20257;-74
2021/04/04 07:19:53;;;;;;;19.20;5.97;;;;;;;3.68;85.65;96788.94;5004485;28;20248;-74
2021/04/04 07:22:33;;;;;;;16.43;5.70;;;;;;;3.67;87.92;96789.06;5004250;28;20205;-74
2021/04/04 07:25:20;;;;;;;14.90;5.97;;;;;;;3.73;87.64;96780.78;5004440;28;20229;-73
2021/04/04 07:28:02;;;;;;;12.27;5.27;;;;;;;3.80;86.61;96790.56;5005793;28;20205;-75
2021/04/04 07:30:30;;;;;;;10.87;5.70;;;;;;;3.90;87.49;96783.66;5003659;28;20586;-77
2021/04/04 07:33:03;;;;;;;15.60;6.10;;;;;;;4.07;87.09;96783.13;5012439;28;20202;-73
2021/04/04 07:35:34;;;;;;;14.67;6.40;;;;;;;4.22;82.10;96781.88;5008379;28;21060;-73
2021/04/04 07:38:07;;;;;;;17.37;5.90;;;;;;;4.31;82.42;96776.72;5005372;28;20313;-74
2021/04/04 07:40:43;;;;;;;9.77;5.37;;;;;;;4.41;84.81;96769.00;5008106;28;20206;-73
2021/04/04 07:43:11;;;;;;;13.23;5.90;;;;;;;4.46;83.63;96770.25;5006744;28;20214;-74
2021/04/04 07:45:44;;;;;;;17.63;6.07;;;;;;;4.60;82.74;96761.28;5007506;28;20225;-74
2021/04/04 07:48:22;;;;;;;15.43;5.67;;;;;;;4.82;80.64;96762.81;5003911;28;21032;-77
2021/04/04 07:50:58;;;;;;;16.67;5.80;;;;;;;4.69;81.73;96760.53;5000770;28;20570;-72
2021/04/04 07:53:31;;;;;;;15.40;5.67;;;;;;;4.84;81.19;96765.28;5008954;28;20205;-75
2021/04/04 07:56:04;;;;;;;17.13;5.80;;;;;;;5.11;79.82;96762.94;5003858;28;20222;-76
2021/04/04 07:58:36;;;;;;;12.37;5.60;;;;;;;5.43;79.49;96760.03;5005833;28;20229;-77
2021/04/04 08:01:09;;;;;;;12.47;5.40;;;;;;;5.56;77.95;96760.59;5004330;28;20202;-73
2021/04/04 08:03:39;;;;;;;15.33;6.17;;;;;;;5.69;76.55;96761.19;5007494;28;20199;-78
2021/04/04 08:06:10;;;;;;;11.93;5.37;;;;;;;5.89;75.52;96764.69;5012029;28;21281;-76
2021/04/04 08:08:40;;;;;;;15.07;5.47;;;;;;;5.84;76.70;96765.09;5007642;28;20198;-74
2021/04/04 08:11:20;;;;;;;14.17;5.60;;;;;;;6.04;77.75;96767.56;5010028;28;20198;-74
2021/04/04 08:13:56;;;;;;;14.47;5.90;;;;;;;6.08;78.60;96765.50;5007879;28;20217;-77
2021/04/04 08:16:28;;;;;;;12.83;5.57;;;;;;;6.18;74.97;96764.53;5008121;28;20655;-73
2021/04/04 08:18:55;;;;;;;18.60;5.83;;;;;;;6.30;73.68;96770.47;5007189;28;21033;-74
2021/04/04 08:21:26;;;;;;;16.27;5.67;;;;;;;6.32;74.35;96758.91;5009299;28;20660;-73
2021/04/04 08:23:56;;;;;;;13.00;5.63;;;;;;;6.38;73.19;96766.22;5007258;28;20212;-79
2021/04/04 08:26:27;;;;;;;13.13;5.60;;;;;;;6.50;74.58;96762.47;5005916;28;20198;-77
2021/04/04 08:29:00;;;;;;;14.03;4.33;;;;;;;6.65;74.05;96764.50;5007209;28;20225;-78
2021/04/04 08:31:29;;;;;;;11.43;5.03;;;;;;;6.72;73.40;96764.78;4999275;28;20206;-75
2021/04/04 08:33:58;;;;;;;11.00;4.83;;;;;;;6.79;71.32;96747.53;5008385;28;20202;-75
2021/04/04 08:36:28;;;;;;;7.93;4.03;;;;;;;6.74;69.61;96757.63;5013083;28;20268;-75
2021/04/04 08:38:58;;;;;;;11.57;4.70;;;;;;;6.74;68.91;96752.38;5008534;28;20780;-74
2021/04/04 08:41:30;;;;;;;11.23;4.40;;;;;;;7.19;69.76;96753.34;5005664;28;20213;-73
2021/04/04 08:43:58;;;;;;;10.93;4.23;;;;;;;7.36;65.33;96756.84;5009307;28;20280;-75
2021/04/04 08:46:32;;;;;;;11.73;4.43;;;;;;;7.62;66.26;96749.94;4999160;28;20212;-73
2021/04/04 08:48:59;;;;;;;10.70;4.27;;;;;;;7.59;63.50;96752.88;5003166;28;20208;-77
2021/04/04 08:51:28;;;;;;;7.27;3.40;;;;;;;7.68;61.81;96757.22;5000249;28;20202;-75
2021/04/04 08:53:57;;;;;;;10.03;3.73;;;;;;;7.70;61.56;96759.69;5003797;28;20203;-75
2021/04/04 08:56:26;;;;;;;12.43;4.30;;;;;;;7.60;63.18;96756.31;5000993;28;20214;-76
2021/04/04 08:58:56;;;;;;;9.47;3.90;;;;;;;7.60;60.47;96759.78;5003190;28;20307;-73
2021/04/04 09:01:28;;;;;;;7.30;3.63;;;;;;;7.75;59.63;96760.09;5001217;28;20253;-73
2021/04/04 09:03:59;;;;;;;11.70;4.03;;;;;;;7.93;61.74;96757.34;5008204;28;20202;-76
2021/04/04 09:06:26;;;;;;;9.10;3.77;;;;;;;8.14;60.40;96759.72;5005056;28;20598;-74
2021/04/04 09:08:53;;;;;;;8.27;3.77;;;;;;;8.07;59.62;96761.25;5005313;28;20519;-77
2021/04/04 09:11:20;;;;;;;10.77;4.23;;;;;;;8.31;61.34;96758.88;5006878;28;20210;-73
2021/04/04 09:13:49;;;;;;;7.70;3.87;;;;;;;8.28;58.90;96748.69;5004618;28;20219;-76
2021/04/04 09:16:16;;;;;;;8.50;3.93;;;;;;;8.30;57.19;96746.72;5003817;28;20668;-75
2021/04/04 09:18:46;;;;;;;6.00;3.10;;;;;;;8.42;57.22;96750.78;5004409;28;20690;-75
2021/04/04 09:21:13;;;;;;;9.03;3.40;;;;;;;8.68;59.34;96740.19;5001655;28;20213;-74
2021/04/04 09:23:43;;;;;;;6.93;3.37;;;;;;;9.12;55.91;96749.66;5006848;28;20206;-73
2021/04/04 09:26:11;;;;;;;5.87;2.90;;;;;;;9.17;55.69;96747.38;5004479;28;20664;-73
2021/04/04 09:28:39;;;;;;;8.03;3.27;;;;;;;8.74;52.72;96747.41;5006166;28;20412;-78
2021/04/04 09:31:09;;;;;;;6.53;2.93;;;;;;;8.98;55.88;96750.22;5001913;28;20194;-73
2021/04/04 09:33:37;;;;;;;7.27;3.30;;;;;;;9.02;52.35;96742.84;5002682;28;20202;-73
2021/04/04 09:36:06;;;;;;;7.20;2.60;;;;;;;9.40;50.15;96745.84;5008832;28;20228;-74
2021/04/04 09:38:35;;;;;;;6.00;2.70;;;;;;;9.46;52.00;96742.59;5005918;28;20222;-77
2021/04/04 09:41:02;;;;;;;5.20;2.73;;;;;;;9.55;50.99;96746.91;5005384;28;20207;-73
2021/04/04 09:43:28;;;;;;;7.93;2.40;;;;;;;9.83;51.17;96736.81;5002854;28;20226;-74
2021/04/04 09:46:04;;;;;;;5.23;2.40;;;;;;;9.78;45.66;96741.72;4998459;28;20232;-73
2021/04/04 09:48:31;;;;;;;8.87;2.93;;;;;;;10.01;47.38;96742.81;5002659;28;20217;-72
2021/04/04 09:51:06;;;;;;;5.77;2.70;;;;;;;10.25;46.20;96732.31;5006758;28;20221;-73
2021/04/04 09:53:36;;;;;;;7.60;2.87;;;;;;;9.86;47.80;96741.78;5003382;28;20213;-74
2021/04/04 09:56:10;;;;;;;4.87;2.80;;;;;;;9.65;45.33;96737.91;5008302;28;20237;-77
2021/04/04 09:58:38;;;;;;;7.27;3.00;;;;;;;9.73;47.02;96735.28;5007163;28;21102;-73
2021/04/04 10:01:14;;;;;;;8.87;3.40;;;;;;;9.69;47.09;96736.59;5002082;28;20213;-76
2021/04/04 10:03:41;;;;;;;5.80;3.40;;;;;;;9.95;45.85;96729.44;5005205;28;20202;-75
2021/04/04 10:06:11;;;;;;;5.53;2.80;;;;;;;10.13;46.77;96722.25;5003075;28;20230;-73
2021/04/04 10:08:37;;;;;;;6.43;3.00;;;;;;;10.22;46.05;96727.41;5012253;28;20260;-73
2021/04/04 10:11:14;;;;;;;6.30;3.17;;;;;;;10.26;46.89;96720.81;5003773;28;20216;-74
2021/04/04 10:13:40;;;;;;;5.80;3.10;;;;;;;10.12;47.52;96721.44;5006831;28;20213;-78
2021/04/04 10:16:18;;;;;;;6.33;2.63;;;;;;;10.48;49.09;96717.53;5007040;28;20241;-73
2021/04/04 10:19:00;;;;;;;7.87;2.40;;;;;;;10.42;44.74;96710.25;5008421;28;20225;-74
2021/04/04 10:21:26;;;;;;;5.30;2.50;;;;;;;10.22;50.27;96713.38;5003294;28;20206;-78
2021/04/04 10:23:52;;;;;;;5.53;2.60;;;;;;;10.49;48.51;96703.38;5008945;28;20209;-73
2021/04/04 10:26:20;;;;;;;6.90;2.80;;;;;;;10.42;48.36;96707.63;5005109;28;20206;-76
2021/04/04 10:28:49;;;;;;;4.57;2.87;;;;;;;10.50;49.24;96699.72;5008440;28;20688;-76
2021/04/04 10:31:16;;;;;;;5.73;2.80;;;;;;;9.81;46.92;96704.56;5003566;28;20208;-73
2021/04/04 10:33:43;;;;;;;5.83;2.77;;;;;;;9.62;47.74;96698.75;5007000;28;20198;-74
2021/04/04 10:36:15;;;;;;;6.90;2.40;;;;;;;9.23;45.96;96704.69;5005340;28;20210;-74
2021/04/04 10:38:41;;;;;;;7.17;2.87;;;;;;;8.89;46.72;96703.84;5002579;28;20233;-75
2021/04/04 10:41:08;;;;;;;9.47;3.23;;;;;;;9.28;46.87;96694.53;5006513;28;20202;-76
2021/04/04 10:43:39;;;;;;;5.70;3.13;;;;;;;9.50;46.52;96696.59;5009429;28;20216;-74
2021/04/04 10:46:08;;;;;;;6.97;3.30;;;;;;;9.78;48.70;96699.63;5001071;28;20222;-74
2021/04/04 10:48:36;;;;;;;7.00;3.17;;;;;;;9.95;45.75;96688.16;5004405;28;20201;-77
2021/04/04 10:51:04;;;;;;;6.27;3.00;;;;;;;10.27;45.81;96685.56;5004130;28;20202;-77
2021/04/04 10:53:31;;;;;;;8.83;2.77;;;;;;;10.80;44.85;96677.97;5011059;28;20202;-76
2021/04/04 10:55:57;;;;;;;7.73;3.10;;;;;;;10.93;43.95;96681.72;5000841;28;20237;-74
2021/04/04 10:58:25;;;;;;;5.37;3.10;;;;;;;10.67;44.43;96675.03;5003452;28;20236;-77
2021/04/04 11:00:52;;;;;;;5.67;2.90;;;;;;;10.93;44.33;96673.78;5004264;28;20205;-77
2021/04/04 11:03:19;;;;;;;6.87;2.90;;;;;;;10.77;45.10;96670.38;5006124;28;20217;-75
2021/04/04 11:05:46;;;;;;;4.10;2.60;;;;;;;11.31;44.50;96665.91;5006631;28;20226;-74
2021/04/04 11:08:12;;;;;;;4.17;2.63;;;;;;;11.55;46.82;96663.22;5003986;28;20210;-77
2021/04/04 11:10:39;;;;;;;6.83;2.97;;;;;;;11.85;47.66;96659.75;5005993;28;20205;-73
2021/04/04 11:13:05;;;;;;;5.57;2.70;;;;;;;11.53;43.54;96664.38;5004716;28;20206;-75
2021/04/04 11:15:34;;;;;;;6.17;2.87;;;;;;;11.82;44.13;96662.75;5001688;28;20229;-75
2021/04/04 11:18:07;;;;;;;7.07;2.90;;;;;;;11.93;43.03;96652.59;5000769;28;20875;-73
2021/04/04 11:20:34;;;;;;;7.80;2.87;;;;;;;12.03;43.73;96647.06;4998480;28;20208;-73
2021/04/04 11:23:01;;;;;;;5.17;2.67;;;;;;;12.42;41.30;96654.72;5005680;28;20871;-74
2021/04/04 11:25:31;;;;;;;6.83;2.93;;;;;;;12.15;41.88;96650.97;4994424;28;20237;-75
2021/04/04 11:27:58;;;;;;;5.88;2.70;;;;;;;12.10;43.47;96653.31;5002917;28;20214;-73
2021/04/04 11:30:39;;;;;;;7.40;3.07;;;;;;;11.88;39.36;96643.56;5003666;28;20210;-74
2021/04/04 11:33:33;;;;;;;5.17;2.43;;;;;;;10.92;43.06;96656.34;5004665;28;20280;-77
2021/04/04 11:36:10;;;;;;;4.87;2.83;;;;;;;11.02;44.32;96652.53;5005451;28;20222;-71
2021/04/04 11:39:01;;;;;;;5.73;2.77;;;;;;;10.85;43.89;96649.28;5003639;28;20221;-75
2021/04/04 11:41:29;;;;;;;6.33;2.73;;;;;;;11.07;41.70;96642.28;5001988;28;20202;-74
2021/04/04 11:44:17;;;;;;;7.57;2.63;;;;;;;11.00;41.39;96646.59;5002053;28;20210;-73
2021/04/04 11:46:49;;;;;;;4.87;2.90;;;;;;;11.33;43.19;96644.63;5001561;28;20206;-72
2021/04/04 11:49:47;;;;;;;5.23;3.00;;;;;;;11.23;43.16;96639.59;5004578;28;20623;-74